createdAt,value
2023-05-19T00:00:50.932Z,8.73
2023-05-19T00:03:21.886Z,6.88
2023-05-19T00:05:50.541Z,8.68
2023-05-19T00:08:20.394Z,5.88
2023-05-19T00:10:48.981Z,6.97
2023-05-19T00:13:17.630Z,6.43
2023-05-19T00:15:46.032Z,10.05
2023-05-19T00:18:14.451Z,8.50
2023-05-19T00:20:44.085Z,11.05
2023-05-19T00:23:12.561Z,7.47
2023-05-19T00:25:40.610Z,7.65
2023-05-19T00:28:08.552Z,6.53
2023-05-19T00:30:36.471Z,9.73
2023-05-19T00:33:04.511Z,8.98
2023-05-19T00:35:32.893Z,7.90
2023-05-19T00:38:02.227Z,8.55
2023-05-19T00:40:33.283Z,9.80
2023-05-19T00:43:01.834Z,8.85
2023-05-19T00:45:30.243Z,9.80
2023-05-19T00:47:58.272Z,6.93
2023-05-19T00:50:27.401Z,7.22
2023-05-19T00:52:55.744Z,6.90
2023-05-19T00:55:28.233Z,6.85
2023-05-19T00:57:57.320Z,6.65
2023-05-19T01:00:25.834Z,7.72
2023-05-19T01:02:54.218Z,5.70
2023-05-19T01:05:22.381Z,6.55
2023-05-19T01:07:53.431Z,6.97
2023-05-19T01:10:21.658Z,8.05
2023-05-19T01:12:51.184Z,7.20
2023-05-19T01:15:20.957Z,9.93
2023-05-19T01:17:55.635Z,6.30
2023-05-19T01:20:29.312Z,6.18
2023-05-19T01:23:19.019Z,7.22
2023-05-19T01:26:23.652Z,9.15
2023-05-19T01:29:08.999Z,7.85
2023-05-19T01:31:40.114Z,8.38
2023-05-19T01:34:09.250Z,6.93
2023-05-19T01:36:38.192Z,7.50
2023-05-19T01:39:07.988Z,6.30
2023-05-19T01:41:36.611Z,6.47
2023-05-19T01:44:04.754Z,6.05
2023-05-19T01:46:32.860Z,6.25
2023-05-19T01:49:03.040Z,5.32
2023-05-19T01:51:31.463Z,7.13
2023-05-19T01:54:00.376Z,6.47
2023-05-19T01:56:39.406Z,8.98
2023-05-19T01:59:24.253Z,4.55
2023-05-19T02:01:55.005Z,4.05
2023-05-19T02:04:39.197Z,7.05
2023-05-19T02:07:16.511Z,6.47
2023-05-19T02:09:54.254Z,10.90
2023-05-19T02:12:29.430Z,6.38
2023-05-19T02:15:07.584Z,5.35
2023-05-19T02:17:41.417Z,5.72
2023-05-19T02:20:12.969Z,6.82
2023-05-19T02:22:41.161Z,5.85
2023-05-19T02:25:10.059Z,8.35
2023-05-19T02:27:39.661Z,7.05
2023-05-19T02:30:09.368Z,8.25
2023-05-19T02:32:38.280Z,6.85
2023-05-19T02:35:08.133Z,8.48
2023-05-19T02:37:37.443Z,8.10
2023-05-19T02:40:06.637Z,7.43
2023-05-19T02:42:34.779Z,6.65
2023-05-19T02:45:02.839Z,6.05
2023-05-19T02:47:30.913Z,5.15
2023-05-19T02:49:59.159Z,7.85
2023-05-19T02:52:27.048Z,7.40
2023-05-19T02:54:56.406Z,7.05
2023-05-19T02:57:24.321Z,9.82
2023-05-19T02:59:52.375Z,5.43
2023-05-19T03:02:20.465Z,5.90
2023-05-19T03:04:48.721Z,7.65
2023-05-19T03:07:16.767Z,6.43
2023-05-19T03:09:44.724Z,6.60
2023-05-19T03:12:14.141Z,8.07
2023-05-19T03:14:42.357Z,6.97
2023-05-19T03:17:10.715Z,9.40
2023-05-19T03:19:39.202Z,9.30
2023-05-19T03:22:07.154Z,8.70
2023-05-19T03:24:36.292Z,11.32
2023-05-19T03:27:05.896Z,9.02
2023-05-19T03:29:36.899Z,7.88
2023-05-19T03:32:05.388Z,7.78
2023-05-19T03:34:33.911Z,6.90
2023-05-19T03:37:01.950Z,10.73
2023-05-19T03:39:30.147Z,11.05
2023-05-19T03:41:58.621Z,16.17
2023-05-19T03:44:27.109Z,7.57
2023-05-19T03:46:56.861Z,14.43
2023-05-19T03:49:43.654Z,11.02
2023-05-19T03:52:31.869Z,11.20
2023-05-19T03:55:09.210Z,9.10
2023-05-19T03:57:37.813Z,8.55
2023-05-19T04:00:07.138Z,8.88
2023-05-19T04:02:42.118Z,8.77
2023-05-19T04:05:11.029Z,10.20
2023-05-19T04:07:39.156Z,9.77
2023-05-19T04:10:08.508Z,8.65
2023-05-19T04:12:36.480Z,8.20
2023-05-19T04:15:05.847Z,9.63
2023-05-19T04:17:34.079Z,7.43
2023-05-19T04:20:04.806Z,8.75
2023-05-19T04:22:32.833Z,7.40
2023-05-19T04:25:00.862Z,6.60
2023-05-19T04:27:31.936Z,7.47
2023-05-19T04:30:00.464Z,9.48
2023-05-19T04:32:29.351Z,7.25
2023-05-19T04:34:59.422Z,8.55
2023-05-19T04:37:30.663Z,7.28
2023-05-19T04:39:59.679Z,10.70
2023-05-19T04:42:33.097Z,9.18
2023-05-19T04:45:03.229Z,8.48
2023-05-19T04:47:36.902Z,9.02
2023-05-19T04:50:06.133Z,8.98
2023-05-19T04:52:36.208Z,9.98
2023-05-19T04:55:06.322Z,10.05
2023-05-19T04:57:34.626Z,11.15
2023-05-19T05:00:04.276Z,9.38
2023-05-19T05:02:39.473Z,10.65
2023-05-19T05:07:38.957Z,8.48
2023-05-19T05:10:09.421Z,10.23
2023-05-19T05:12:38.270Z,10.70
2023-05-19T05:15:08.073Z,8.23
2023-05-19T05:17:37.755Z,6.75
2023-05-19T05:20:08.018Z,6.00
2023-05-19T05:22:39.653Z,8.32
2023-05-19T05:25:10.498Z,7.28
2023-05-19T05:27:39.421Z,5.97
2023-05-19T05:30:10.106Z,6.53
2023-05-19T05:32:39.502Z,6.57
2023-05-19T05:35:13.603Z,5.55
2023-05-19T05:37:43.008Z,5.78
2023-05-19T05:40:11.865Z,9.18
2023-05-19T05:42:40.483Z,5.80
2023-05-19T05:45:10.575Z,8.85
2023-05-19T05:47:39.858Z,4.28
2023-05-19T05:50:11.151Z,7.38
2023-05-19T05:52:41.623Z,6.95
2023-05-19T05:55:13.257Z,5.47
2023-05-19T05:57:41.910Z,9.80
2023-05-19T06:00:15.632Z,8.25
2023-05-19T06:02:44.800Z,8.82
2023-05-19T06:05:14.042Z,7.80
2023-05-19T06:07:43.790Z,9.73
2023-05-19T06:10:15.008Z,8.07
2023-05-19T06:12:43.336Z,7.88
2023-05-19T06:15:12.524Z,6.95
2023-05-19T06:18:00.198Z,10.23
2023-05-19T06:20:28.748Z,4.70
2023-05-19T06:22:57.692Z,8.05
2023-05-19T06:25:31.275Z,10.13
2023-05-19T06:27:59.453Z,6.47
2023-05-19T06:30:28.652Z,7.10
2023-05-19T06:33:07.980Z,7.15
2023-05-19T06:35:35.994Z,6.72
2023-05-19T06:38:04.224Z,7.22
2023-05-19T06:40:33.758Z,6.97
2023-05-19T06:43:01.978Z,7.70
2023-05-19T06:45:49.915Z,12.13
2023-05-19T06:48:17.934Z,5.75
2023-05-19T06:50:46.025Z,6.53
2023-05-19T06:53:14.390Z,8.70
2023-05-19T06:55:57.423Z,6.32
2023-05-19T06:58:28.571Z,6.05
2023-05-19T07:00:58.006Z,5.45
2023-05-19T07:03:31.077Z,5.10
2023-05-19T07:06:00.028Z,5.45
2023-05-19T07:08:29.006Z,6.03
2023-05-19T07:10:59.136Z,5.35
2023-05-19T07:13:27.736Z,5.47
2023-05-19T07:15:57.044Z,5.32
2023-05-19T07:18:26.547Z,6.97
2023-05-19T07:20:54.522Z,8.52
2023-05-19T07:23:22.664Z,3.58
2023-05-19T07:25:51.469Z,5.10
2023-05-19T07:28:20.742Z,6.63
2023-05-19T07:30:49.971Z,4.50
2023-05-19T07:33:17.889Z,6.55
2023-05-19T07:35:46.323Z,7.72
2023-05-19T07:38:14.233Z,7.40
2023-05-19T07:40:42.187Z,5.05
2023-05-19T07:43:11.330Z,6.30
2023-05-19T07:45:41.004Z,6.72
2023-05-19T07:48:08.952Z,7.22
2023-05-19T07:50:37.071Z,5.90
2023-05-19T07:53:05.103Z,4.97
2023-05-19T07:55:33.100Z,4.57
2023-05-19T07:58:01.029Z,7.07
2023-05-19T08:00:29.079Z,3.85
2023-05-19T08:02:58.734Z,9.07
2023-05-19T08:05:26.778Z,9.60
2023-05-19T08:07:54.682Z,5.60
2023-05-19T08:10:22.612Z,6.30
2023-05-19T08:12:50.541Z,10.68
2023-05-19T08:15:18.980Z,6.00
2023-05-19T08:17:46.928Z,7.53
2023-05-19T08:20:16.189Z,8.63
2023-05-19T08:22:44.131Z,4.10
2023-05-19T08:25:12.127Z,5.85
2023-05-19T08:27:39.982Z,5.32
2023-05-19T08:30:09.107Z,6.43
2023-05-19T08:32:37.013Z,7.60
2023-05-19T08:35:05.212Z,4.38
2023-05-19T08:37:37.075Z,7.40
2023-05-19T08:40:06.266Z,5.78
2023-05-19T08:42:34.341Z,4.15
2023-05-19T08:45:03.191Z,9.30
2023-05-19T08:47:31.328Z,9.50
2023-05-19T08:50:04.962Z,9.27
2023-05-19T08:52:50.250Z,6.93
2023-05-19T08:55:28.625Z,5.55
2023-05-19T08:57:57.839Z,4.93
2023-05-19T09:00:26.760Z,7.20
2023-05-19T09:03:00.189Z,6.35
2023-05-19T09:05:34.753Z,4.85
2023-05-19T09:08:05.589Z,7.00
2023-05-19T09:10:33.534Z,6.10
2023-05-19T09:13:01.503Z,8.32
2023-05-19T09:15:29.640Z,7.15
2023-05-19T09:18:10.696Z,6.38
2023-05-19T09:20:40.668Z,6.30
2023-05-19T09:23:14.886Z,5.45
2023-05-19T09:25:49.249Z,4.90
2023-05-19T09:28:25.076Z,6.13
2023-05-19T09:31:00.810Z,6.20
2023-05-19T09:33:29.378Z,6.30
2023-05-19T09:35:57.414Z,5.22
2023-05-19T09:38:27.314Z,6.43
2023-05-19T09:40:57.532Z,5.22
2023-05-19T09:43:25.469Z,7.22
2023-05-19T09:45:56.765Z,4.20
2023-05-19T09:48:27.642Z,11.07
2023-05-19T09:50:57.218Z,5.95
2023-05-19T09:53:26.613Z,3.92
2023-05-19T09:55:57.834Z,10.13
2023-05-19T09:58:26.272Z,5.05
2023-05-19T10:00:55.468Z,5.70
2023-05-19T10:03:24.916Z,6.72
2023-05-19T10:05:54.592Z,4.20
2023-05-19T10:08:24.456Z,6.03
2023-05-19T10:10:53.817Z,7.05
2023-05-19T10:13:23.069Z,6.03
2023-05-19T10:18:25.209Z,9.30
2023-05-19T10:20:53.770Z,5.53
2023-05-19T10:23:22.336Z,5.13
2023-05-19T10:25:52.085Z,5.47
2023-05-19T10:28:25.390Z,4.03
2023-05-19T10:30:57.750Z,5.60
2023-05-19T10:33:35.445Z,8.05
2023-05-19T10:36:29.133Z,5.25
2023-05-19T10:39:03.450Z,6.30
2023-05-19T10:41:43.979Z,9.75
2023-05-19T10:44:24.420Z,5.47
2023-05-19T10:46:54.171Z,5.78
2023-05-19T10:49:24.204Z,6.55
2023-05-19T10:51:56.032Z,5.95
2023-05-19T10:54:43.298Z,3.00
2023-05-19T10:57:16.290Z,3.95
2023-05-19T10:59:46.167Z,7.78
2023-05-19T11:02:40.770Z,5.35
2023-05-19T11:05:10.562Z,3.17
2023-05-19T11:07:38.655Z,4.25
2023-05-19T11:10:08.107Z,6.07
2023-05-19T11:12:43.910Z,3.67
2023-05-19T11:15:15.602Z,4.07
2023-05-19T11:17:48.317Z,4.07
2023-05-19T11:20:23.826Z,6.65
2023-05-19T11:23:07.314Z,5.28
2023-05-19T11:25:46.795Z,4.07
2023-05-19T11:28:17.554Z,5.30
2023-05-19T11:30:50.522Z,5.75
2023-05-19T11:33:19.932Z,3.63
2023-05-19T11:35:49.437Z,4.22
2023-05-19T11:38:19.726Z,4.43
2023-05-19T11:40:53.695Z,4.72
2023-05-19T11:43:24.258Z,4.00
2023-05-19T11:45:54.900Z,3.08
2023-05-19T11:48:23.752Z,7.13
2023-05-19T11:50:52.500Z,3.30
2023-05-19T11:53:21.062Z,4.65
2023-05-19T11:55:49.965Z,4.88
2023-05-19T11:58:18.109Z,6.18
2023-05-19T12:00:47.571Z,5.47
2023-05-19T12:03:22.253Z,4.18
2023-05-19T12:05:50.933Z,3.97
2023-05-19T12:08:19.483Z,4.43
2023-05-19T12:10:50.446Z,5.63
2023-05-19T12:13:18.421Z,4.80
2023-05-19T12:15:46.383Z,6.95
2023-05-19T12:18:14.780Z,4.85
2023-05-19T12:20:44.536Z,7.70
2023-05-19T12:23:14.424Z,5.18
2023-05-19T12:25:42.714Z,3.65
2023-05-19T12:28:11.652Z,4.70
2023-05-19T12:30:39.661Z,3.35
2023-05-19T12:33:07.684Z,5.30
2023-05-19T12:35:38.790Z,5.50
2023-05-19T12:38:08.188Z,4.68
2023-05-19T12:40:37.417Z,4.22
2023-05-19T12:43:07.832Z,4.35
2023-05-19T12:45:37.042Z,2.85
2023-05-19T12:48:06.667Z,4.68
2023-05-19T12:50:35.280Z,5.57
2023-05-19T12:53:03.762Z,6.35
2023-05-19T12:55:39.641Z,2.45
2023-05-19T12:58:08.536Z,4.13
2023-05-19T13:00:41.710Z,2.22
2023-05-19T13:03:15.964Z,7.43
2023-05-19T13:05:46.556Z,4.90
2023-05-19T13:08:16.163Z,3.08
2023-05-19T13:10:47.187Z,6.32
2023-05-19T13:13:15.340Z,4.65
2023-05-19T13:15:44.478Z,4.32
2023-05-19T13:18:13.989Z,3.78
2023-05-19T13:20:43.218Z,4.75
2023-05-19T13:23:11.587Z,5.10
2023-05-19T13:25:39.498Z,5.15
2023-05-19T13:28:08.991Z,3.60
2023-05-19T13:30:39.666Z,3.28
2023-05-19T13:33:08.231Z,5.28
2023-05-19T13:35:38.284Z,3.28
2023-05-19T13:38:06.837Z,10.13
2023-05-19T13:40:35.612Z,3.85
2023-05-19T13:43:04.198Z,3.17
2023-05-19T13:45:33.476Z,4.60
2023-05-19T13:48:01.423Z,5.53
2023-05-19T13:50:29.516Z,3.25
2023-05-19T13:52:57.461Z,5.65
2023-05-19T13:55:27.260Z,5.28
2023-05-19T13:57:55.255Z,3.80
2023-05-19T14:00:23.923Z,5.22
2023-05-19T14:02:53.836Z,3.85
2023-05-19T14:05:21.909Z,7.18
2023-05-19T14:07:49.867Z,3.80
2023-05-19T14:10:17.976Z,3.38
2023-05-19T14:13:12.416Z,3.90
2023-05-19T14:15:37.841Z,4.22
2023-05-19T14:18:07.629Z,5.97
2023-05-19T14:20:37.335Z,3.65
2023-05-19T14:23:05.586Z,5.68
2023-05-19T14:25:33.497Z,4.13
2023-05-19T14:28:01.789Z,4.90
2023-05-19T14:30:30.036Z,5.55
2023-05-19T14:32:57.992Z,3.50
2023-05-19T14:35:27.927Z,4.57
2023-05-19T14:37:55.767Z,5.25
2023-05-19T14:40:23.625Z,5.75
2023-05-19T14:42:51.536Z,3.90
2023-05-19T14:45:19.627Z,5.05
2023-05-19T14:47:48.048Z,3.90
2023-05-19T14:50:16.074Z,5.15
2023-05-19T14:52:45.410Z,3.85
2023-05-19T14:55:13.356Z,4.70
2023-05-19T14:57:41.382Z,2.17
2023-05-19T15:00:10.330Z,5.50
2023-05-19T15:02:38.329Z,2.95
2023-05-19T15:05:06.792Z,6.85
2023-05-19T15:07:34.716Z,3.53
2023-05-19T15:10:04.212Z,3.35
2023-05-19T15:12:32.107Z,3.80
2023-05-19T15:15:00.088Z,4.75
2023-05-19T15:17:28.057Z,6.50
2023-05-19T15:19:55.923Z,6.57
2023-05-19T15:22:23.812Z,3.67
2023-05-19T15:24:51.805Z,4.00
2023-05-19T15:27:21.358Z,2.83
2023-05-19T15:29:50.360Z,3.10
2023-05-19T15:32:18.377Z,2.58
2023-05-19T15:34:46.250Z,4.90
2023-05-19T15:37:14.147Z,5.15
2023-05-19T15:39:42.070Z,5.65
2023-05-19T15:42:09.963Z,4.55
2023-05-19T15:44:39.600Z,4.57
2023-05-19T15:47:07.463Z,5.13
2023-05-19T15:49:35.387Z,2.58
2023-05-19T15:52:04.427Z,3.53
2023-05-19T15:54:32.390Z,4.07
2023-05-19T15:57:00.291Z,2.28
2023-05-19T15:59:28.413Z,3.05
2023-05-19T16:01:57.723Z,4.35
2023-05-19T16:04:25.670Z,4.40
2023-05-19T16:06:53.603Z,2.50
2023-05-19T16:09:21.617Z,2.05
2023-05-19T16:11:49.625Z,4.22
2023-05-19T16:14:17.480Z,4.93
2023-05-19T16:16:45.671Z,3.53
2023-05-19T16:19:15.198Z,3.35
2023-05-19T16:21:43.103Z,3.33
2023-05-19T16:24:11.049Z,3.75
2023-05-19T16:26:38.940Z,4.07
2023-05-19T16:29:06.814Z,3.53
2023-05-19T16:31:34.754Z,4.75
2023-05-19T16:34:02.630Z,3.50
2023-05-19T16:36:31.861Z,2.75
2023-05-19T16:38:59.739Z,2.80
2023-05-19T16:41:27.666Z,3.47
2023-05-19T16:43:55.502Z,4.03
2023-05-19T16:46:23.554Z,1.92
2023-05-19T16:48:51.500Z,5.57
2023-05-19T16:51:19.419Z,3.25
2023-05-19T16:53:48.728Z,4.97
2023-05-19T16:56:16.614Z,3.95
2023-05-19T16:58:44.486Z,4.35
2023-05-19T17:01:12.451Z,4.90
2023-05-19T17:03:40.529Z,2.22
2023-05-19T17:06:08.470Z,4.88
2023-05-19T17:08:36.397Z,7.40
2023-05-19T17:11:06.480Z,5.30
2023-05-19T17:13:36.292Z,5.13
2023-05-19T17:16:04.353Z,4.07
2023-05-19T17:18:32.308Z,4.03
2023-05-19T17:21:03.432Z,2.67
2023-05-19T17:23:31.634Z,3.55
2023-05-19T17:25:59.494Z,5.07
2023-05-19T17:28:28.803Z,3.00
2023-05-19T17:30:56.914Z,3.40
2023-05-19T17:33:24.980Z,4.53
2023-05-19T17:35:53.014Z,2.85
2023-05-19T17:38:20.889Z,4.35
2023-05-19T17:40:48.866Z,6.25
2023-05-19T17:43:16.743Z,2.40
2023-05-19T17:45:45.966Z,3.22
2023-05-19T17:48:13.952Z,4.50
2023-05-19T17:50:41.918Z,2.53
2023-05-19T17:53:10.700Z,4.47
2023-05-19T17:55:39.224Z,4.28
2023-05-19T17:58:08.001Z,5.22
2023-05-19T18:00:36.420Z,3.90
2023-05-19T18:03:06.581Z,3.53
2023-05-19T18:05:34.832Z,2.25
2023-05-19T18:08:07.020Z,4.40
2023-05-19T18:10:38.106Z,3.45
2023-05-19T18:13:06.595Z,6.25
2023-05-19T18:15:34.869Z,5.13
2023-05-19T18:18:05.447Z,4.40
2023-05-19T18:20:35.510Z,5.38
2023-05-19T18:23:03.587Z,3.22
2023-05-19T18:25:31.482Z,3.22
2023-05-19T18:27:59.382Z,2.47
2023-05-19T18:30:27.273Z,5.55
2023-05-19T18:32:55.340Z,3.13
2023-05-19T18:35:23.371Z,3.83
2023-05-19T18:37:55.858Z,4.65
2023-05-19T18:40:23.890Z,4.88
2023-05-19T18:42:52.088Z,2.88
2023-05-19T18:45:20.107Z,2.35
2023-05-19T18:47:48.100Z,3.95
2023-05-19T18:50:16.501Z,5.10
2023-05-19T18:52:44.433Z,7.13
2023-05-19T18:55:13.723Z,2.05
2023-05-19T18:57:41.862Z,3.80
2023-05-19T19:00:10.754Z,3.42
2023-05-19T19:02:38.976Z,4.45
2023-05-19T19:05:09.437Z,3.78
2023-05-19T19:07:41.095Z,3.45
2023-05-19T19:10:10.062Z,4.70
2023-05-19T19:12:39.368Z,2.83
2023-05-19T19:15:08.185Z,1.88
2023-05-19T19:17:36.114Z,3.33
2023-05-19T19:20:04.237Z,2.60
2023-05-19T19:22:32.382Z,4.03
2023-05-19T19:25:00.540Z,2.72
2023-05-19T19:27:31.605Z,1.95
2023-05-19T19:30:01.395Z,5.35
2023-05-19T19:32:31.442Z,4.95
2023-05-19T19:34:59.448Z,2.38
2023-05-19T19:37:27.360Z,3.85
2023-05-19T19:39:55.329Z,2.38
2023-05-19T19:42:23.400Z,4.75
2023-05-19T19:44:58.087Z,2.08
2023-05-19T19:47:27.912Z,3.92
2023-05-19T19:49:56.129Z,2.35
2023-05-19T19:52:26.354Z,2.85
2023-05-19T19:54:54.529Z,2.33
2023-05-19T19:57:22.631Z,4.22
2023-05-19T19:59:55.096Z,2.92
2023-05-19T20:02:23.495Z,2.42
2023-05-19T20:04:52.749Z,4.85
2023-05-19T20:07:23.125Z,2.38
2023-05-19T20:09:52.695Z,3.03
2023-05-19T20:12:20.755Z,3.00
2023-05-19T20:14:51.215Z,3.83
2023-05-19T20:17:19.217Z,2.78
2023-05-19T20:19:47.222Z,3.35
2023-05-19T20:22:16.512Z,3.50
2023-05-19T20:24:44.448Z,1.88
2023-05-19T20:27:15.774Z,6.00
2023-05-19T20:29:43.805Z,3.03
2023-05-19T20:32:11.748Z,1.90
2023-05-19T20:34:39.810Z,2.85
2023-05-19T20:37:07.690Z,4.03
2023-05-19T20:39:36.976Z,11.57
2023-05-19T20:42:05.036Z,4.93
2023-05-19T20:44:32.983Z,2.42
2023-05-19T20:47:01.054Z,3.22
2023-05-19T20:49:29.051Z,2.10
2023-05-19T20:51:57.965Z,2.95
2023-05-19T20:54:26.144Z,4.10
2023-05-19T20:56:55.750Z,3.22
2023-05-19T20:59:23.675Z,8.15
2023-05-19T21:01:51.679Z,2.80
2023-05-19T21:04:23.068Z,1.85
2023-05-19T21:06:51.196Z,4.40
2023-05-19T21:09:21.110Z,9.93
2023-05-19T21:11:49.193Z,5.63
2023-05-19T21:14:18.609Z,3.97
2023-05-19T21:16:49.290Z,3.53
2023-05-19T21:19:43.089Z,3.50
2023-05-19T21:22:11.544Z,3.17
2023-05-19T21:24:39.542Z,2.10
2023-05-19T21:27:11.124Z,3.35
2023-05-19T21:29:40.484Z,3.88
2023-05-19T21:32:09.116Z,2.22
2023-05-19T21:34:38.845Z,2.80
2023-05-19T21:37:07.251Z,2.72
2023-05-19T21:39:35.756Z,8.27
2023-05-19T21:42:05.225Z,3.60
2023-05-19T21:44:33.173Z,3.10
2023-05-19T21:47:02.519Z,3.67
2023-05-19T21:49:31.086Z,4.90
2023-05-19T21:51:59.124Z,2.17
2023-05-19T21:54:27.170Z,2.75
2023-05-19T21:56:55.062Z,4.45
2023-05-19T21:59:24.697Z,3.42
2023-05-19T22:01:53.254Z,3.42
2023-05-19T22:04:23.672Z,3.13
2023-05-19T22:06:51.679Z,3.42
2023-05-19T22:09:19.619Z,3.03
2023-05-19T22:11:47.595Z,3.00
2023-05-19T22:14:15.785Z,3.13
2023-05-19T22:16:43.796Z,4.13
2023-05-19T22:19:12.692Z,5.10
2023-05-19T22:21:42.281Z,5.57
2023-05-19T22:24:10.304Z,2.40
2023-05-19T22:26:42.492Z,3.33
2023-05-19T22:29:14.928Z,3.70
2023-05-19T22:31:42.923Z,3.25
2023-05-19T22:34:12.462Z,4.28
2023-05-19T22:36:41.358Z,2.67
2023-05-19T22:39:12.400Z,3.92
2023-05-19T22:41:42.018Z,4.85
2023-05-19T22:44:11.361Z,3.10
2023-05-19T22:46:39.358Z,2.88
2023-05-19T22:49:07.264Z,5.25
2023-05-19T22:51:35.174Z,3.17
2023-05-19T22:54:03.173Z,2.03
2023-05-19T22:56:32.503Z,3.67
2023-05-19T22:59:00.661Z,3.10
2023-05-19T23:01:28.748Z,3.65
2023-05-19T23:03:56.914Z,3.38
2023-05-19T23:06:25.074Z,3.72
2023-05-19T23:08:59.687Z,3.38
2023-05-19T23:11:27.624Z,1.67
2023-05-19T23:13:57.359Z,2.83
2023-05-19T23:16:25.957Z,3.20
2023-05-19T23:18:53.969Z,2.45
2023-05-19T23:21:21.897Z,2.88
2023-05-19T23:23:50.439Z,4.50
2023-05-19T23:26:18.370Z,2.08
2023-05-19T23:28:46.279Z,2.83
2023-05-19T23:31:15.555Z,4.10
2023-05-19T23:33:43.532Z,2.92
2023-05-19T23:36:12.197Z,4.60
2023-05-19T23:38:40.367Z,3.15
2023-05-19T23:41:08.362Z,2.80
2023-05-19T23:43:37.719Z,3.17
2023-05-19T23:46:06.033Z,2.75
2023-05-19T23:48:36.547Z,2.20
2023-05-19T23:51:04.806Z,2.72
2023-05-19T23:53:32.829Z,2.80
2023-05-19T23:56:00.842Z,2.92
2023-05-19T23:58:28.909Z,2.53
